createdAt,value
2018-03-07T00:00:34.082Z,77.34
2018-03-07T00:01:39.578Z,77.15
2018-03-07T00:02:46.099Z,77.24
2018-03-07T00:03:51.136Z,77.05
2018-03-07T00:04:57.101Z,77.62
2018-03-07T00:06:01.642Z,77.34
2018-03-07T00:07:07.635Z,77.62
2018-03-07T00:08:13.666Z,76.96
2018-03-07T00:09:18.195Z,77.15
2018-03-07T00:10:24.750Z,77.43
2018-03-07T00:11:29.182Z,77.72
2018-03-07T00:12:34.769Z,77.62
2018-03-07T00:13:41.238Z,77.81
2018-03-07T00:14:45.763Z,77.81
2018-03-07T00:15:52.244Z,77.34
2018-03-07T00:16:56.733Z,77.53
2018-03-07T00:18:02.248Z,77.72
2018-03-07T00:19:08.775Z,77.72
2018-03-07T00:20:14.141Z,77.72
2018-03-07T00:21:19.800Z,77.62
2018-03-07T00:22:24.296Z,77.72
2018-03-07T00:23:29.776Z,77.62
2018-03-07T00:24:36.342Z,77.81
2018-03-07T00:25:40.830Z,77.81
2018-03-07T00:26:47.343Z,77.43
2018-03-07T00:27:51.856Z,77.34
2018-03-07T00:28:57.356Z,77.62
2018-03-07T00:30:03.884Z,77.72
2018-03-07T00:31:08.396Z,77.62
2018-03-07T00:32:14.936Z,77.05
2018-03-07T00:33:19.411Z,77.15
2018-03-07T00:34:24.934Z,77.01
2018-03-07T00:35:31.438Z,77.15
2018-03-07T00:36:35.953Z,77.05
2018-03-07T00:37:42.470Z,77.15
2018-03-07T00:38:46.971Z,77.20
2018-03-07T00:39:52.489Z,77.20
2018-03-07T00:40:59.008Z,76.92
2018-03-07T00:42:03.492Z,77.11
2018-03-07T00:43:10.037Z,77.20
2018-03-07T00:44:14.526Z,77.11
2018-03-07T00:45:20.043Z,77.11
2018-03-07T00:46:26.559Z,77.11
2018-03-07T00:47:31.052Z,77.30
2018-03-07T00:48:37.625Z,77.30
2018-03-07T00:49:42.129Z,76.92
2018-03-07T00:50:47.588Z,77.49
2018-03-07T00:51:54.107Z,77.58
2018-03-07T00:52:58.616Z,78.06
2018-03-07T00:54:05.139Z,78.25
2018-03-07T00:55:09.640Z,78.16
2018-03-07T00:56:15.131Z,78.91
2018-03-07T00:57:21.671Z,78.91
2018-03-07T00:58:26.154Z,79.01
2018-03-07T00:59:32.682Z,78.91
2018-03-07T01:00:37.174Z,78.21
2018-03-07T01:01:42.724Z,78.63
2018-03-07T01:02:49.208Z,78.72
2018-03-07T01:03:53.707Z,78.63
2018-03-07T01:05:00.244Z,79.01
2018-03-07T01:06:04.735Z,79.25
2018-03-07T01:07:10.251Z,79.30
2018-03-07T01:08:16.757Z,79.54
2018-03-07T01:09:21.268Z,79.25
2018-03-07T01:10:27.796Z,79.39
2018-03-07T01:11:32.283Z,79.35
2018-03-07T01:12:37.802Z,79.63
2018-03-07T01:13:44.324Z,80.21
2018-03-07T01:14:48.825Z,79.54
2018-03-07T01:15:55.336Z,79.44
2018-03-07T01:16:59.836Z,79.25
2018-03-07T01:18:05.367Z,79.92
2018-03-07T01:19:11.877Z,80.30
2018-03-07T01:20:16.382Z,80.11
2018-03-07T01:21:22.899Z,80.68
2018-03-07T01:22:27.401Z,80.58
2018-03-07T01:23:32.900Z,80.49
2018-03-07T01:24:39.425Z,80.68
2018-03-07T01:25:43.942Z,80.68
2018-03-07T01:26:50.521Z,80.49
2018-03-07T01:27:54.949Z,80.40
2018-03-07T01:29:00.445Z,80.40
2018-03-07T01:30:06.973Z,80.68
2018-03-07T01:31:11.542Z,81.06
2018-03-07T01:32:18.005Z,81.82
2018-03-07T01:33:22.502Z,81.54
2018-03-07T01:34:28.017Z,81.35
2018-03-07T01:35:34.526Z,81.16
2018-03-07T01:36:39.024Z,81.54
2018-03-07T01:37:45.549Z,81.35
2018-03-07T01:38:50.054Z,81.63
2018-03-07T01:39:55.568Z,81.63
2018-03-07T01:41:02.077Z,81.44
2018-03-07T01:42:06.589Z,81.16
2018-03-07T01:43:13.108Z,80.96
2018-03-07T01:44:17.603Z,80.77
2018-03-07T01:45:23.117Z,81.06
2018-03-07T01:46:29.642Z,81.25
2018-03-07T01:47:34.144Z,81.54
2018-03-07T01:48:40.657Z,81.35
2018-03-07T01:49:45.148Z,81.63
2018-03-07T01:50:50.680Z,81.44
2018-03-07T01:51:57.188Z,81.25
2018-03-07T01:53:01.690Z,81.35
2018-03-07T01:54:08.201Z,82.10
2018-03-07T01:55:12.716Z,82.10
2018-03-07T01:56:18.220Z,81.92
2018-03-07T01:57:24.741Z,82.39
2018-03-07T01:58:29.247Z,82.20
2018-03-07T01:59:35.757Z,82.20
2018-03-07T02:00:40.263Z,82.20
2018-03-07T02:01:45.782Z,82.29
2018-03-07T02:02:52.320Z,81.92
2018-03-07T02:03:57.703Z,82.39
2018-03-07T02:05:03.357Z,82.10
2018-03-07T02:06:07.893Z,82.01
2018-03-07T02:07:13.320Z,81.73
2018-03-07T02:08:19.849Z,81.35
2018-03-07T02:09:24.339Z,81.44
2018-03-07T02:10:30.850Z,81.40
2018-03-07T02:11:35.370Z,81.25
2018-03-07T02:12:40.872Z,81.40
2018-03-07T02:13:47.401Z,81.21
2018-03-07T02:14:51.891Z,81.21
2018-03-07T02:15:58.422Z,81.30
2018-03-07T02:17:02.915Z,80.83
2018-03-07T02:18:08.416Z,81.30
2018-03-07T02:19:14.941Z,80.83
2018-03-07T02:20:19.463Z,80.93
2018-03-07T02:21:25.972Z,80.74
2018-03-07T02:22:30.465Z,80.83
2018-03-07T02:23:35.968Z,80.74
2018-03-07T02:24:42.485Z,81.49
2018-03-07T02:25:46.987Z,81.21
2018-03-07T02:26:53.528Z,81.49
2018-03-07T02:27:58.011Z,81.30
2018-03-07T02:29:03.516Z,81.59
2018-03-07T02:30:10.045Z,81.97
2018-03-07T02:31:14.544Z,82.07
2018-03-07T02:32:21.064Z,82.16
2018-03-07T02:33:25.566Z,82.16
2018-03-07T02:34:31.098Z,82.16
2018-03-07T02:35:37.589Z,82.07
2018-03-07T02:36:42.091Z,82.26
2018-03-07T02:37:48.616Z,82.73
2018-03-07T02:38:53.270Z,82.73
2018-03-07T02:39:58.627Z,82.92
2018-03-07T02:41:05.144Z,82.82
2018-03-07T02:42:09.635Z,82.45
2018-03-07T02:43:16.175Z,81.87
2018-03-07T02:44:20.663Z,82.16
2018-03-07T02:45:26.167Z,82.45
2018-03-07T02:46:32.689Z,82.73
2018-03-07T02:47:37.194Z,82.45
2018-03-07T02:48:43.729Z,82.82
2018-03-07T02:49:48.213Z,82.82
2018-03-07T02:50:53.727Z,82.82
2018-03-07T02:52:00.249Z,82.45
2018-03-07T02:53:04.738Z,82.54
2018-03-07T02:54:11.257Z,81.68
2018-03-07T02:55:15.769Z,82.16
2018-03-07T02:56:21.272Z,82.73
2018-03-07T02:57:27.804Z,82.45
2018-03-07T02:58:32.296Z,82.54
2018-03-07T02:59:38.809Z,81.87
2018-03-07T03:00:43.318Z,81.97
2018-03-07T03:01:48.821Z,82.45
2018-03-07T03:02:55.343Z,82.54
2018-03-07T03:03:59.844Z,82.82
2018-03-07T03:05:06.364Z,82.64
2018-03-07T03:06:10.867Z,83.20
2018-03-07T03:07:16.373Z,83.30
2018-03-07T03:08:22.886Z,83.39
2018-03-07T03:09:27.399Z,84.06
2018-03-07T03:10:33.910Z,83.97
2018-03-07T03:11:38.409Z,84.53
2018-03-07T03:12:43.936Z,84.06
2018-03-07T03:13:50.443Z,84.44
2018-03-07T03:14:54.937Z,84.06
2018-03-07T03:16:01.459Z,83.78
2018-03-07T03:17:05.957Z,83.49
2018-03-07T03:18:11.467Z,83.20
2018-03-07T03:19:17.981Z,83.49
2018-03-07T03:20:22.500Z,83.59
2018-03-07T03:21:29.025Z,83.59
2018-03-07T03:22:33.514Z,84.16
2018-03-07T03:23:39.021Z,84.06
2018-03-07T03:24:45.540Z,84.53
2018-03-07T03:25:50.033Z,84.40
2018-03-07T03:26:56.579Z,83.59
2018-03-07T03:28:01.051Z,83.20
2018-03-07T03:29:06.563Z,83.16
2018-03-07T03:30:13.089Z,83.59
2018-03-07T03:31:17.595Z,83.59
2018-03-07T03:32:24.107Z,83.73
2018-03-07T03:33:28.616Z,83.36
2018-03-07T03:34:34.117Z,83.36
2018-03-07T03:35:40.637Z,84.30
2018-03-07T03:36:45.137Z,84.49
2018-03-07T03:37:51.658Z,84.59
2018-03-07T03:38:56.155Z,84.11
2018-03-07T03:40:01.694Z,83.83
2018-03-07T03:41:08.197Z,83.54
2018-03-07T03:42:12.686Z,83.54
2018-03-07T03:43:19.206Z,83.16
2018-03-07T03:44:23.705Z,83.45
2018-03-07T03:45:29.217Z,83.36
2018-03-07T03:46:35.750Z,83.36
2018-03-07T03:47:40.234Z,83.45
2018-03-07T03:48:46.748Z,83.64
2018-03-07T03:49:51.258Z,83.16
2018-03-07T03:50:56.758Z,83.45
2018-03-07T03:52:03.284Z,83.36
2018-03-07T03:53:07.786Z,83.45
2018-03-07T03:54:14.321Z,83.45
2018-03-07T03:55:18.797Z,83.07
2018-03-07T03:56:24.312Z,83.36
2018-03-07T03:57:30.831Z,84.01
2018-03-07T03:58:35.329Z,83.54
2018-03-07T03:59:41.847Z,83.92
2018-03-07T04:00:46.347Z,84.87
2018-03-07T04:01:51.860Z,84.40
2018-03-07T04:02:58.379Z,84.87
2018-03-07T04:04:02.879Z,84.78
2018-03-07T04:05:09.407Z,85.16
2018-03-07T04:06:13.894Z,84.30
2018-03-07T04:07:19.410Z,84.68
2018-03-07T04:08:25.929Z,84.49
2018-03-07T04:09:30.428Z,83.92
2018-03-07T04:10:36.952Z,83.83
2018-03-07T04:11:41.453Z,83.73
2018-03-07T04:12:46.962Z,84.21
2018-03-07T04:13:53.472Z,84.87
2018-03-07T04:14:57.970Z,84.78
2018-03-07T04:16:04.499Z,84.87
2018-03-07T04:17:09.004Z,84.68
2018-03-07T04:18:14.504Z,85.25
2018-03-07T04:19:21.027Z,84.78
2018-03-07T04:20:25.537Z,84.78
2018-03-07T04:21:32.041Z,85.53
2018-03-07T04:22:36.556Z,84.87
2018-03-07T04:23:42.039Z,85.35
2018-03-07T04:24:48.580Z,84.68
2018-03-07T04:25:53.076Z,84.78
2018-03-07T04:26:59.599Z,85.25
2018-03-07T04:28:04.094Z,84.30
2018-03-07T04:29:09.603Z,84.07
2018-03-07T04:30:16.125Z,84.40
2018-03-07T04:31:20.624Z,84.40
2018-03-07T04:32:27.131Z,84.30
2018-03-07T04:33:31.629Z,84.78
2018-03-07T04:34:37.139Z,83.73
2018-03-07T04:35:43.671Z,83.64
2018-03-07T04:36:48.168Z,83.54
2018-03-07T04:37:54.693Z,83.78
2018-03-07T04:38:59.180Z,84.87
2018-03-07T04:40:04.684Z,84.59
2018-03-07T04:41:11.205Z,84.07
2018-03-07T04:42:15.707Z,84.30
2018-03-07T04:43:22.232Z,83.78
2018-03-07T04:44:26.740Z,83.36
2018-03-07T04:45:32.315Z,83.12
2018-03-07T04:46:38.759Z,83.50
2018-03-07T04:47:43.253Z,83.54
2018-03-07T04:48:49.781Z,83.40
2018-03-07T04:49:54.271Z,83.12
2018-03-07T04:50:59.784Z,83.03
2018-03-07T04:52:06.300Z,83.50
2018-03-07T04:53:10.810Z,83.69
2018-03-07T04:54:17.318Z,83.78
2018-03-07T04:55:21.820Z,83.50
2018-03-07T04:56:27.327Z,83.40
2018-03-07T04:57:33.856Z,83.40
2018-03-07T04:58:38.346Z,83.12
2018-03-07T04:59:44.871Z,82.17
2018-03-07T05:00:49.381Z,82.46
2018-03-07T05:01:54.872Z,83.40
2018-03-07T05:03:01.399Z,83.97
2018-03-07T05:04:05.910Z,84.26
2018-03-07T05:05:12.413Z,84.26
2018-03-07T05:06:16.915Z,84.83
2018-03-07T05:07:22.423Z,84.55
2018-03-07T05:08:28.939Z,84.26
2018-03-07T05:09:33.441Z,84.36
2018-03-07T05:10:39.973Z,83.59
2018-03-07T05:11:44.460Z,83.69
2018-03-07T05:12:49.989Z,83.88
2018-03-07T05:13:56.486Z,84.17
2018-03-07T05:15:01.016Z,84.07
2018-03-07T05:16:07.519Z,83.78
2018-03-07T05:17:11.996Z,83.78
2018-03-07T05:18:17.522Z,83.31
2018-03-07T05:19:24.042Z,83.12
2018-03-07T05:20:28.528Z,83.12
2018-03-07T05:21:35.054Z,83.12
2018-03-07T05:22:39.555Z,83.17
2018-03-07T05:23:45.058Z,83.03
2018-03-07T05:24:51.580Z,82.79
2018-03-07T05:25:56.085Z,83.31
2018-03-07T05:27:02.603Z,83.46
2018-03-07T05:28:07.097Z,83.65
2018-03-07T05:29:12.605Z,83.78
2018-03-07T05:30:19.140Z,84.03
2018-03-07T05:31:23.627Z,84.07
2018-03-07T05:32:30.140Z,83.50
2018-03-07T05:33:34.648Z,83.46
2018-03-07T05:34:40.149Z,82.98
2018-03-07T05:35:46.677Z,83.27
2018-03-07T05:36:51.165Z,82.98
2018-03-07T05:37:57.686Z,83.08
2018-03-07T05:39:02.183Z,83.36
2018-03-07T05:40:07.699Z,83.55
2018-03-07T05:41:14.213Z,83.46
2018-03-07T05:42:18.723Z,83.46
2018-03-07T05:43:25.250Z,83.36
2018-03-07T05:44:29.731Z,83.55
2018-03-07T05:45:35.234Z,83.46
2018-03-07T05:46:41.760Z,83.27
2018-03-07T05:47:46.263Z,83.36
2018-03-07T05:48:52.767Z,84.22
2018-03-07T05:49:57.276Z,83.94
2018-03-07T05:51:02.781Z,83.84
2018-03-07T05:52:09.295Z,83.84
2018-03-07T05:53:13.805Z,83.55
2018-03-07T05:54:20.314Z,83.65
2018-03-07T05:55:24.820Z,84.41
2018-03-07T05:56:30.339Z,84.31
2018-03-07T05:57:36.855Z,84.22
2018-03-07T05:58:41.346Z,84.41
2018-03-07T05:59:47.864Z,84.50
2018-03-07T06:00:52.366Z,85.17
2018-03-07T06:01:57.872Z,84.78
2018-03-07T06:03:04.392Z,84.59
2018-03-07T06:04:08.894Z,84.69
2018-03-07T06:05:15.413Z,84.41
2018-03-07T06:06:19.929Z,84.78
2018-03-07T06:07:25.409Z,84.88
2018-03-07T06:08:31.943Z,84.59
2018-03-07T06:09:36.437Z,84.22
2018-03-07T06:10:42.966Z,84.41
2018-03-07T06:11:47.451Z,84.31
2018-03-07T06:12:52.955Z,84.03
2018-03-07T06:13:59.476Z,88.68
2018-03-07T06:15:03.996Z,86.11
2018-03-07T06:16:10.501Z,84.78
2018-03-07T06:17:14.995Z,86.02
2018-03-07T06:18:20.504Z,85.36
2018-03-07T06:19:27.034Z,85.30
2018-03-07T06:20:31.514Z,85.30
2018-03-07T06:21:38.034Z,85.11
2018-03-07T06:22:42.526Z,84.83
2018-03-07T06:23:48.046Z,84.64
2018-03-07T06:24:54.563Z,83.59
2018-03-07T06:25:59.054Z,82.65
2018-03-07T06:27:05.579Z,82.46
2018-03-07T06:28:10.078Z,81.88
2018-03-07T06:29:15.595Z,81.41
2018-03-07T06:30:22.110Z,81.13
2018-03-07T06:31:26.619Z,81.41
2018-03-07T06:32:33.121Z,81.41
2018-03-07T06:33:37.620Z,81.32
2018-03-07T06:34:43.128Z,80.46
2018-03-07T06:35:49.661Z,80.84
2018-03-07T06:36:54.150Z,81.13
2018-03-07T06:38:00.667Z,80.71
2018-03-07T06:39:05.166Z,80.99
2018-03-07T06:40:10.677Z,80.80
2018-03-07T06:41:17.282Z,81.32
2018-03-07T06:42:21.685Z,81.18
2018-03-07T06:43:28.206Z,81.37
2018-03-07T06:44:32.714Z,81.94
2018-03-07T06:45:38.266Z,81.94
2018-03-07T06:46:44.737Z,81.09
2018-03-07T06:47:49.224Z,81.66
2018-03-07T06:48:55.755Z,81.85
2018-03-07T06:50:00.251Z,81.85
2018-03-07T06:51:05.761Z,82.13
2018-03-07T06:52:12.279Z,81.94
2018-03-07T06:53:16.767Z,82.04
2018-03-07T06:54:23.288Z,81.94
2018-03-07T06:55:27.790Z,81.66
2018-03-07T06:56:33.320Z,81.75
2018-03-07T06:57:39.814Z,82.42
2018-03-07T06:58:44.332Z,82.42
2018-03-07T06:59:50.844Z,81.85
2018-03-07T07:00:55.338Z,82.04
2018-03-07T07:02:00.843Z,82.42
2018-03-07T07:03:07.359Z,83.46
2018-03-07T07:04:11.854Z,82.98
2018-03-07T07:05:18.376Z,83.08
2018-03-07T07:06:22.874Z,82.23
2018-03-07T07:07:28.390Z,82.70
2018-03-07T07:08:34.914Z,82.60
2018-03-07T07:09:39.405Z,82.51
2018-03-07T07:10:45.930Z,83.17
2018-03-07T07:11:50.419Z,83.27
2018-03-07T07:12:55.931Z,83.08
2018-03-07T07:14:02.458Z,82.85
2018-03-07T07:15:06.946Z,83.51
2018-03-07T07:16:13.472Z,84.08
2018-03-07T07:17:17.961Z,84.98
2018-03-07T07:18:23.481Z,84.78
2018-03-07T07:19:29.993Z,84.98
2018-03-07T07:20:34.496Z,84.69
2018-03-07T07:21:41.004Z,84.50
2018-03-07T07:22:45.510Z,85.17
2018-03-07T07:23:51.009Z,84.31
2018-03-07T07:24:57.529Z,84.50
2018-03-07T07:26:02.051Z,84.69
2018-03-07T07:27:08.554Z,84.78
2018-03-07T07:28:13.054Z,85.07
2018-03-07T07:29:18.560Z,84.98
2018-03-07T07:30:25.076Z,85.36
2018-03-07T07:31:29.582Z,84.88
2018-03-07T07:32:36.105Z,84.88
2018-03-07T07:33:40.588Z,85.45
2018-03-07T07:34:46.113Z,85.26
2018-03-07T07:35:52.620Z,85.55
2018-03-07T07:36:57.117Z,85.45
2018-03-07T07:38:03.631Z,85.45
2018-03-07T07:39:08.134Z,85.55
2018-03-07T07:40:13.633Z,85.55
2018-03-07T07:41:20.154Z,85.64
2018-03-07T07:42:24.654Z,86.02
2018-03-07T07:43:31.177Z,85.93
2018-03-07T07:44:35.667Z,86.11
2018-03-07T07:45:41.181Z,85.93
2018-03-07T07:46:47.712Z,85.97
2018-03-07T07:47:52.200Z,85.97
2018-03-07T07:48:58.728Z,85.97
2018-03-07T07:50:03.222Z,86.16
2018-03-07T07:51:08.720Z,86.16
2018-03-07T07:52:15.266Z,86.07
2018-03-07T07:53:19.738Z,86.35
2018-03-07T07:54:26.296Z,86.07
2018-03-07T07:55:30.766Z,86.07
2018-03-07T07:56:36.282Z,86.35
2018-03-07T07:57:42.818Z,86.54
2018-03-07T07:58:47.292Z,87.30
2018-03-07T07:59:53.816Z,87.87
2018-03-07T08:00:58.332Z,87.96
2018-03-07T08:02:03.810Z,88.53
2018-03-07T08:03:10.347Z,88.29
2018-03-07T08:04:14.832Z,88.57
2018-03-07T08:05:21.364Z,88.20
2018-03-07T08:06:25.871Z,87.62
2018-03-07T08:07:31.361Z,87.34
2018-03-07T08:08:37.905Z,87.34
2018-03-07T08:09:42.397Z,87.15
2018-03-07T08:10:48.916Z,87.15
2018-03-07T08:11:53.430Z,87.24
2018-03-07T08:12:58.913Z,87.43
2018-03-07T08:14:05.450Z,88.01
2018-03-07T08:15:09.946Z,87.91
2018-03-07T08:16:16.463Z,88.34
2018-03-07T08:17:20.951Z,88.43
2018-03-07T08:18:26.466Z,88.53
2018-03-07T08:19:32.994Z,88.81
2018-03-07T08:20:37.466Z,88.43
2018-03-07T08:21:44.018Z,88.43
2018-03-07T08:22:48.506Z,88.43
2018-03-07T08:23:53.998Z,88.05
2018-03-07T08:25:00.527Z,87.38
2018-03-07T08:26:05.025Z,87.10
2018-03-07T08:27:11.546Z,87.24
2018-03-07T08:28:16.040Z,86.95
2018-03-07T08:29:21.562Z,86.72
2018-03-07T08:30:28.070Z,86.86
2018-03-07T08:31:32.581Z,86.76
2018-03-07T08:32:39.090Z,86.67
2018-03-07T08:33:43.600Z,86.67
2018-03-07T08:34:49.102Z,86.67
2018-03-07T08:35:55.637Z,86.86
2018-03-07T08:37:00.155Z,86.57
2018-03-07T08:38:06.647Z,85.91
2018-03-07T08:39:11.131Z,86.43
2018-03-07T08:40:16.652Z,86.24
2018-03-07T08:41:23.192Z,86.05
2018-03-07T08:42:27.679Z,85.66
2018-03-07T08:43:34.195Z,85.86
2018-03-07T08:44:38.711Z,85.57
2018-03-07T08:45:44.219Z,85.57
2018-03-07T08:46:50.727Z,85.66
2018-03-07T08:47:55.238Z,85.47
2018-03-07T08:49:01.741Z,85.57
2018-03-07T08:50:06.240Z,84.95
2018-03-07T08:51:11.760Z,85.33
2018-03-07T08:52:18.282Z,84.56
2018-03-07T08:53:22.776Z,84.66
2018-03-07T08:54:29.304Z,85.04
2018-03-07T08:55:33.805Z,84.66
2018-03-07T08:56:39.331Z,84.76
2018-03-07T08:57:45.846Z,84.76
2018-03-07T08:58:50.338Z,84.56
2018-03-07T08:59:56.860Z,84.28
2018-03-07T09:01:01.369Z,84.70
2018-03-07T09:02:06.876Z,84.52
2018-03-07T09:03:13.396Z,84.33
2018-03-07T09:04:17.880Z,83.65
2018-03-07T09:05:24.423Z,83.37
2018-03-07T09:06:28.926Z,83.65
2018-03-07T09:07:34.427Z,83.37
2018-03-07T09:08:40.949Z,82.80
2018-03-07T09:09:45.445Z,82.42
2018-03-07T09:10:51.970Z,82.23
2018-03-07T09:11:56.464Z,81.98
2018-03-07T09:13:01.973Z,81.51
2018-03-07T09:14:08.512Z,80.94
2018-03-07T09:15:13.003Z,80.84
2018-03-07T09:16:19.527Z,81.13
2018-03-07T09:17:24.036Z,80.94
2018-03-07T09:18:29.528Z,80.84
2018-03-07T09:19:36.058Z,80.84
2018-03-07T09:20:40.564Z,80.88
2018-03-07T09:21:47.078Z,79.99
2018-03-07T09:22:51.589Z,80.50
2018-03-07T09:23:57.089Z,80.31
2018-03-07T09:25:03.620Z,80.12
2018-03-07T09:26:08.130Z,80.22
2018-03-07T09:27:14.659Z,80.60
2018-03-07T09:28:19.135Z,79.27
2018-03-07T09:29:24.654Z,77.93
2018-03-07T09:30:31.176Z,77.49
2018-03-07T09:31:35.676Z,75.40
2018-03-07T09:32:42.213Z,75.49
2018-03-07T09:33:46.708Z,75.40
2018-03-07T09:34:52.207Z,74.73
2018-03-07T09:35:58.764Z,74.77
2018-03-07T09:37:03.239Z,73.81
2018-03-07T09:38:09.762Z,73.91
2018-03-07T09:39:14.264Z,73.33
2018-03-07T09:40:19.770Z,72.57
2018-03-07T09:41:26.295Z,72.57
2018-03-07T09:42:30.814Z,73.24
2018-03-07T09:43:37.313Z,72.67
2018-03-07T09:44:41.827Z,71.84
2018-03-07T09:45:47.360Z,71.84
2018-03-07T09:46:53.881Z,71.56
2018-03-07T09:47:58.369Z,70.51
2018-03-07T09:49:04.895Z,70.13
2018-03-07T09:50:09.395Z,68.22
2018-03-07T09:51:14.890Z,67.55
2018-03-07T09:52:21.438Z,66.22
2018-03-07T09:53:26.759Z,66.69
2018-03-07T09:54:32.448Z,66.31
2018-03-07T09:55:36.958Z,66.50
2018-03-07T09:56:42.471Z,66.02
2018-03-07T09:57:49.022Z,66.22
2018-03-07T09:58:53.500Z,66.02
2018-03-07T10:00:00.013Z,66.31
2018-03-07T10:01:04.512Z,65.74
2018-03-07T10:02:10.022Z,66.12
2018-03-07T10:03:16.546Z,65.83
2018-03-07T10:04:21.074Z,65.26
2018-03-07T10:05:27.595Z,65.17
2018-03-07T10:06:32.077Z,65.45
2018-03-07T10:07:37.593Z,65.83
2018-03-07T10:08:44.123Z,65.26
2018-03-07T10:09:48.622Z,65.26
2018-03-07T10:10:55.151Z,64.50
2018-03-07T10:11:59.658Z,64.50
2018-03-07T10:13:05.155Z,63.16
2018-03-07T10:14:11.685Z,63.92
2018-03-07T10:15:16.180Z,64.40
2018-03-07T10:16:22.705Z,64.31
2018-03-07T10:17:27.215Z,63.54
2018-03-07T10:18:32.726Z,63.45
2018-03-07T10:19:39.255Z,63.92
2018-03-07T10:20:43.742Z,63.00
2018-03-07T10:21:50.297Z,63.86
2018-03-07T10:22:54.815Z,63.00
2018-03-07T10:24:00.305Z,63.10
2018-03-07T10:25:06.812Z,62.81
2018-03-07T10:26:11.312Z,62.24
2018-03-07T10:27:17.834Z,61.76
2018-03-07T10:28:22.340Z,61.95
2018-03-07T10:29:27.857Z,62.24
2018-03-07T10:30:34.382Z,61.13
2018-03-07T10:31:38.872Z,60.46
2018-03-07T10:32:45.395Z,60.64
2018-03-07T10:33:49.901Z,59.78
2018-03-07T10:34:55.420Z,58.54
2018-03-07T10:36:01.967Z,58.45
2018-03-07T10:37:06.931Z,58.54
2018-03-07T10:38:12.961Z,58.54
2018-03-07T10:39:17.477Z,59.22
2018-03-07T10:40:22.982Z,59.22
2018-03-07T10:41:29.522Z,58.36
2018-03-07T10:42:34.008Z,59.19
2018-03-07T10:43:40.542Z,59.09
2018-03-07T10:44:45.041Z,60.04
2018-03-07T10:45:50.550Z,60.61
2018-03-07T10:46:57.089Z,61.29
2018-03-07T10:48:01.583Z,62.02
2018-03-07T10:49:08.101Z,62.40
2018-03-07T10:50:12.617Z,62.40
2018-03-07T10:51:18.130Z,62.30
2018-03-07T10:52:24.648Z,62.49
2018-03-07T10:53:29.137Z,62.88
2018-03-07T10:54:35.677Z,63.07
2018-03-07T10:55:40.177Z,63.45
2018-03-07T10:56:45.677Z,63.64
2018-03-07T10:57:52.209Z,62.97
2018-03-07T10:58:56.700Z,62.40
2018-03-07T11:00:03.253Z,62.02
2018-03-07T11:01:07.743Z,62.11
2018-03-07T11:02:13.249Z,62.30
2018-03-07T11:03:19.781Z,62.21
2018-03-07T11:04:24.268Z,62.68
2018-03-07T11:05:30.817Z,62.97
2018-03-07T11:06:35.308Z,62.49
2018-03-07T11:07:40.816Z,62.78
2018-03-07T11:08:47.365Z,63.16
2018-03-07T11:09:51.828Z,62.97
2018-03-07T11:10:58.368Z,63.26
2018-03-07T11:12:02.885Z,62.68
2018-03-07T11:13:08.377Z,62.78
2018-03-07T11:14:14.894Z,63.45
2018-03-07T11:15:19.398Z,63.64
2018-03-07T11:16:25.923Z,64.69
2018-03-07T11:17:30.424Z,64.31
2018-03-07T11:18:35.947Z,63.54
2018-03-07T11:19:42.468Z,63.54
2018-03-07T11:20:46.966Z,62.88
2018-03-07T11:21:53.539Z,63.16
2018-03-07T11:22:58.007Z,62.68
2018-03-07T11:24:03.516Z,63.64
2018-03-07T11:25:10.046Z,64.02
2018-03-07T11:26:14.539Z,64.21
2018-03-07T11:27:21.071Z,63.92
2018-03-07T11:28:25.563Z,64.02
2018-03-07T11:29:31.074Z,64.02
2018-03-07T11:30:37.597Z,63.54
2018-03-07T11:31:42.100Z,64.31
2018-03-07T11:32:48.634Z,63.64
2018-03-07T11:33:53.128Z,62.97
2018-03-07T11:34:58.637Z,64.21
2018-03-07T11:36:05.162Z,63.54
2018-03-07T11:37:09.669Z,64.02
2018-03-07T11:38:16.182Z,64.12
2018-03-07T11:39:20.692Z,64.02
2018-03-07T11:40:26.198Z,64.12
2018-03-07T11:41:32.728Z,64.31
2018-03-07T11:42:37.234Z,65.04
2018-03-07T11:43:43.757Z,63.99
2018-03-07T11:44:48.272Z,64.37
2018-03-07T11:45:53.777Z,64.56
2018-03-07T11:47:00.300Z,63.80
2018-03-07T11:48:04.806Z,63.99
2018-03-07T11:49:11.312Z,64.18
2018-03-07T11:50:15.821Z,64.94
2018-03-07T11:51:21.367Z,64.65
2018-03-07T11:52:27.864Z,64.65
2018-03-07T11:53:32.377Z,64.65
2018-03-07T11:54:38.888Z,65.00
2018-03-07T11:55:43.392Z,64.75
2018-03-07T11:56:48.901Z,64.65
2018-03-07T11:57:55.431Z,65.04
2018-03-07T11:58:59.918Z,64.56
2018-03-07T12:00:06.456Z,64.69
2018-03-07T12:01:10.952Z,64.12
2018-03-07T12:02:16.458Z,63.16
2018-03-07T12:03:22.992Z,63.16
2018-03-07T12:04:27.497Z,62.30
2018-03-07T12:05:34.017Z,62.21
2018-03-07T12:06:38.524Z,62.21
2018-03-07T12:07:44.025Z,62.21
2018-03-07T12:08:50.569Z,62.68
2018-03-07T12:09:55.051Z,62.68
2018-03-07T12:11:01.582Z,62.56
2018-03-07T12:12:06.082Z,62.97
2018-03-07T12:13:11.606Z,63.99
2018-03-07T12:14:18.155Z,62.88
2018-03-07T12:15:22.626Z,63.04
2018-03-07T12:16:29.153Z,62.94
2018-03-07T12:17:33.687Z,62.84
2018-03-07T12:18:39.172Z,64.28
2018-03-07T12:19:45.671Z,63.99
2018-03-07T12:20:50.181Z,63.42
2018-03-07T12:21:56.716Z,63.51
2018-03-07T12:23:01.196Z,63.60
2018-03-07T12:24:06.722Z,63.42
2018-03-07T12:25:13.240Z,63.89
2018-03-07T12:26:17.775Z,64.56
2018-03-07T12:27:24.275Z,64.37
2018-03-07T12:28:28.766Z,64.85
2018-03-07T12:29:34.299Z,64.47
2018-03-07T12:30:40.800Z,64.75
2018-03-07T12:31:45.296Z,65.13
2018-03-07T12:32:51.846Z,65.42
2018-03-07T12:33:56.332Z,65.58
2018-03-07T12:35:01.855Z,65.96
2018-03-07T12:36:08.376Z,66.15
2018-03-07T12:37:12.878Z,65.29
2018-03-07T12:38:19.403Z,65.00
2018-03-07T12:39:23.897Z,65.55
2018-03-07T12:40:29.416Z,66.21
2018-03-07T12:41:35.931Z,66.50
2018-03-07T12:42:40.434Z,66.59
2018-03-07T12:43:46.957Z,67.26
2018-03-07T12:44:51.476Z,67.26
2018-03-07T12:45:56.976Z,67.74
2018-03-07T12:47:03.522Z,67.45
2018-03-07T12:48:08.013Z,67.55
2018-03-07T12:49:14.516Z,68.59
2018-03-07T12:50:19.020Z,68.02
2018-03-07T12:51:24.535Z,67.45
2018-03-07T12:52:31.054Z,68.40
2018-03-07T12:53:35.574Z,68.59
2018-03-07T12:54:42.077Z,67.83
2018-03-07T12:55:46.578Z,67.74
2018-03-07T12:56:52.104Z,68.12
2018-03-07T12:57:58.722Z,68.50
2018-03-07T12:59:03.137Z,68.88
2018-03-07T13:00:09.659Z,67.83
2018-03-07T13:01:14.163Z,68.78
2018-03-07T13:02:19.690Z,68.88
2018-03-07T13:03:26.176Z,68.40
2018-03-07T13:04:30.695Z,68.56
2018-03-07T13:05:37.203Z,68.78
2018-03-07T13:06:41.703Z,68.75
2018-03-07T13:07:47.218Z,69.42
2018-03-07T13:08:53.738Z,69.13
2018-03-07T13:09:58.248Z,68.84
2018-03-07T13:11:04.771Z,69.32
2018-03-07T13:12:09.263Z,69.79
2018-03-07T13:13:14.775Z,69.23
2018-03-07T13:14:21.293Z,69.13
2018-03-07T13:15:25.818Z,69.04
2018-03-07T13:16:32.329Z,69.17
2018-03-07T13:17:36.827Z,68.59
2018-03-07T13:18:42.338Z,68.02
2018-03-07T13:19:48.855Z,67.74
2018-03-07T13:20:53.353Z,67.93
2018-03-07T13:21:59.893Z,67.93
2018-03-07T13:23:04.389Z,68.69
2018-03-07T13:24:09.894Z,70.21
2018-03-07T13:25:16.428Z,70.21
2018-03-07T13:26:20.921Z,70.21
2018-03-07T13:27:27.447Z,70.40
2018-03-07T13:28:31.954Z,70.31
2018-03-07T13:29:37.465Z,70.59
2018-03-07T13:30:43.975Z,69.64
2018-03-07T13:31:48.482Z,70.02
2018-03-07T13:32:55.014Z,69.74
2018-03-07T13:33:59.504Z,69.83
2018-03-07T13:35:05.040Z,70.15
2018-03-07T13:36:11.536Z,69.96
2018-03-07T13:37:16.108Z,69.77
2018-03-07T13:38:22.560Z,69.39
2018-03-07T13:39:27.062Z,69.43
2018-03-07T13:40:32.582Z,69.23
2018-03-07T13:41:39.128Z,68.66
2018-03-07T13:42:43.599Z,67.99
2018-03-07T13:43:50.119Z,67.52
2018-03-07T13:44:54.628Z,67.52
2018-03-07T13:46:00.136Z,67.83
2018-03-07T13:47:06.650Z,67.40
2018-03-07T13:48:11.164Z,65.04
2018-03-07T13:49:17.706Z,62.55
2018-03-07T13:50:22.188Z,64.12
2018-03-07T13:51:27.697Z,60.93
2018-03-07T13:52:34.231Z,56.19
2018-03-07T13:53:38.736Z,53.32
2018-03-07T13:54:45.251Z,47.97
2018-03-07T13:55:49.756Z,43.58
2018-03-07T13:56:55.275Z,42.83
2018-03-07T13:58:01.847Z,42.03
2018-03-07T13:59:06.295Z,40.30
2018-03-07T14:00:12.835Z,41.46
2018-03-07T14:01:17.388Z,39.91
2018-03-07T14:02:22.852Z,38.25
2018-03-07T14:03:29.365Z,37.52